Atlasgracht — PCVX — position and weather

sailwx.info

Track history (hours):
 
Tides and Currents Weather Stations Pressure Air Temp Water Temp Dewpoint Dewpoint Depression Visibility Wind Speed Wind Dir Waves Ship Positions

Atlasgracht

Last reported at 2019-Feb-23 16:30 UTC. Time now 2019-Feb-23 16:43 UTC.
Position N 56°07' E 014°49'.

Length 130 m; beam 19 m; draft 9 m.

Type: Cargo ship. MMSI: 244060802.

Date/timePositionNaut miles runAvg speedWind from/ knotsBaromVisibWave heightAir tempDewpointWater temp
2019-Feb-23 16:30N 56°07' E 014°49'2 3.8
2019-Feb-23 16:00N 56°09' E 014°49'0 0.0
2019-Feb-23 15:28N 56°09' E 014°49'0 0.0
2019-Feb-23 14:58N 56°09' E 014°49'0 0.0
2019-Feb-23 14:28N 56°09' E 014°49'0 0.0
2019-Feb-23 13:58N 56°09' E 014°49'0 0.0
2019-Feb-23 13:28N 56°09' E 014°49'0 0.0
2019-Feb-23 12:58N 56°09' E 014°49'0 0.0
2019-Feb-23 12:28N 56°09' E 014°49'0 0.0
2019-Feb-23 11:58N 56°09' E 014°49'0 0.0
2019-Feb-23 11:28N 56°09' E 014°49'0 0.0
2019-Feb-23 10:58N 56°09' E 014°49'0 0.0
2019-Feb-23 10:28N 56°09' E 014°49'0 0.0
2019-Feb-23 09:58N 56°09' E 014°49'0 0.0
2019-Feb-23 09:28N 56°09' E 014°49'0 0.0
2019-Feb-23 08:58N 56°09' E 014°49'0 0.0
2019-Feb-23 08:30N 56°09' E 014°49'1 2.5
2019-Feb-23 08:00N 56°08' E 014°49'4 8.3
2019-Feb-23 07:30N 56°05' E 014°54'611.4
2019-Feb-23 07:00N 56°03' E 015°03'611.2
2019-Feb-23 06:30N 56°01' E 015°13'611.4
2019-Feb-23 06:00N 55°59' E 015°22'611.8
2019-Feb-23 05:30N 55°57' E 015°32'611.8
2019-Feb-23 05:00N 55°55' E 015°42'611.2
2019-Feb-23 04:30N 55°55' E 015°52'611.7
2019-Feb-23 04:00N 55°56' E 016°02'611.8
2019-Feb-23 03:30N 55°57' E 016°13'611.5
2019-Feb-23 03:00N 55°57' E 016°23'611.4
2019-Feb-23 02:30N 55°58' E 016°33'611.1
2019-Feb-23 02:00N 55°59' E 016°43'611.0
2019-Feb-23 01:30N 55°60' E 016°52'611.2
2019-Feb-23 01:00N 56°01' E 017°02'1211.3
2019-Feb-22 23:55N 56°04' E 017°23'1211.5
2019-Feb-22 22:55N 56°08' E 017°43'811.7
2019-Feb-22 22:13N 56°11' E 017°57'412.2
2019-Feb-22 21:54N 56°12' E 018°03'711.3
2019-Feb-22 21:17N 56°15' E 018°15'10 2.6
2019-Feb-22 17:25N 56°19' E 018°31'50 3.5
2019-Feb-22 03:17N 56°01' E 017°07'311.2
2019-Feb-22 03:00N 56°01' E 017°01'611.1
2019-Feb-22 02:30N 55°60' E 016°52'611.1
2019-Feb-22 02:00N 55°59' E 016°42'510.9
2019-Feb-22 01:30N 55°58' E 016°32'510.8
2019-Feb-22 01:00N 55°57' E 016°23'510.7
2019-Feb-22 00:30N 55°56' E 016°13'510.6
2019-Feb-22 00:00N 55°56' E 016°04'510.6
2019-Feb-21 23:30N 55°55' E 015°55'510.4
2019-Feb-21 23:00N 55°54' E 015°45'510.0
2019-Feb-21 22:30N 55°55' E 015°37'510.3
2019-Feb-21 22:00N 55°57' E 015°28'510.3
2019-Feb-21 21:30N 55°59' E 015°20'510.4
2019-Feb-21 21:00N 56°01' E 015°11'510.5
2019-Feb-21 20:30N 56°03' E 015°02'510.8
2019-Feb-21 20:00N 56°05' E 014°53'4 7.8
2019-Feb-21 19:30N 56°08' E 014°49'1 1.9
2019-Feb-21 19:00N 56°09' E 014°49'0 0.0
2019-Feb-21 18:30N 56°09' E 014°49'0 0.0
2019-Feb-21 18:00N 56°09' E 014°49'0 0.0
2019-Feb-21 17:30N 56°09' E 014°49'0 0.0
2019-Feb-21 17:00N 56°09' E 014°49'0 0.0
2019-Feb-21 16:30N 56°09' E 014°49'0 0.0
2019-Feb-21 16:00N 56°09' E 014°49'0 0.0
2019-Feb-21 15:30N 56°09' E 014°49'0 0.0
2019-Feb-21 15:00N 56°09' E 014°49'0 0.0
2019-Feb-21 14:30N 56°09' E 014°49'0 0.0
2019-Feb-21 14:00N 56°09' E 014°49'0 0.0
2019-Feb-21 13:30N 56°09' E 014°49'0 0.0
2019-Feb-21 13:00N 56°09' E 014°49'0 0.0
2019-Feb-21 12:30N 56°09' E 014°49'0 0.0
2019-Feb-21 12:00N 56°09' E 014°49'0 0.7
2019-Feb-21 11:30N 56°09' E 014°49'2 4.2
2019-Feb-21 11:00N 56°07' E 014°49'5 9.4
2019-Feb-21 10:30N 56°04' E 014°57'510.0
2019-Feb-21 10:00N 56°03' E 015°05'510.0
2019-Feb-21 09:30N 56°01' E 015°13'510.1
2019-Feb-21 09:00N 55°59' E 015°22'510.1
2019-Feb-21 08:30N 55°57' E 015°30'510.2
2019-Feb-21 08:00N 55°55' E 015°39'510.5
2019-Feb-21 07:30N 55°55' E 015°48'611.1
2019-Feb-21 07:00N 55°55' E 015°58'611.3
2019-Feb-21 06:31N 55°56' E 016°08'612.1
2019-Feb-21 06:00N 55°57' E 016°18'713.3
2019-Feb-21 05:30N 55°58' E 016°30'713.1
2019-Feb-21 05:00N 55°59' E 016°42'612.9
2019-Feb-21 04:30N 55°60' E 016°53'4312.7
2019-Feb-21 01:06N 56°13' E 018°07'557518.4
2019-Feb-21 00:01N 51°58' E 004°02'46613.2
2019-Feb-19 12:50N 55°59' E 015°21'410.7
2019-Feb-19 12:30N 55°58' E 015°27'510.6
2019-Feb-19 12:00N 55°56' E 015°36'510.5
2019-Feb-19 11:30N 55°54' E 015°45'510.8
2019-Feb-19 11:00N 55°55' E 015°54'511.0
2019-Feb-19 10:30N 55°56' E 016°04'611.5
2019-Feb-19 10:00N 55°57' E 016°14'612.0
2019-Feb-19 09:30N 55°57' E 016°25'612.0
2019-Feb-19 09:00N 55°58' E 016°35'612.1
2019-Feb-19 08:30N 55°59' E 016°46'612.2
2019-Feb-19 07:59N 56°00' E 016°57'612.0
2019-Feb-19 07:30N 56°01' E 017°07'1712.0
2019-Feb-19 06:05N 56°07' E 017°36'112.1
2019-Feb-19 06:00N 56°07' E 017°38'612.3
2019-Feb-19 05:30N 56°09' E 017°48'19 8.5
2019-Feb-19 03:19N 56°17' E 018°19'0 0.1
2019-Feb-19 02:59N 56°17' E 018°19'0 0.1
2019-Feb-19 02:28N 56°17' E 018°19'0 0.0
2019-Feb-19 02:00N 56°17' E 018°19'0 0.1
2019-Feb-19 01:29N 56°17' E 018°18'0 0.1
2019-Feb-19 01:00N 56°17' E 018°18'0 0.1
2019-Feb-19 00:24N 56°17' E 018°18'0 0.1
2019-Feb-19 00:00N 56°17' E 018°18'0 0.1
2019-Feb-18 23:26N 56°17' E 018°18'0 0.0
2019-Feb-18 22:56N 56°17' E 018°18'0 0.1
2019-Feb-18 22:19N 56°17' E 018°18'0 0.1
2019-Feb-18 21:51N 56°17' E 018°18'0 0.1
2019-Feb-18 21:28N 56°17' E 018°18'0 0.1
2019-Feb-18 20:59N 56°17' E 018°18'0 0.1
2019-Feb-18 20:30N 56°17' E 018°18'0 0.1
2019-Feb-18 19:57N 56°17' E 018°18'0 0.1
2019-Feb-18 19:12N 56°17' E 018°17'0 0.1
2019-Feb-18 19:00N 56°17' E 018°17'0 0.1
2019-Feb-18 18:28N 56°17' E 018°17'0 0.1
2019-Feb-18 18:00N 56°17' E 018°17'0 0.1
2019-Feb-18 17:22N 56°17' E 018°17'0 0.1
2019-Feb-18 16:56N 56°17' E 018°17'0 0.4
2019-Feb-18 16:04N 56°17' E 018°16'0 0.0
2019-Feb-18 15:52N 56°17' E 018°16'1 3.2
2019-Feb-18 15:30N 56°16' E 018°14'510.2
2019-Feb-18 15:00N 56°14' E 018°07'510.5
2019-Feb-18 14:30N 56°11' E 017°58'711.8
2019-Feb-18 13:53N 56°09' E 017°46'612.5
2019-Feb-18 13:23N 56°06' E 017°35'512.6
2019-Feb-18 13:00N 56°05' E 017°27'612.6
2019-Feb-18 12:30N 56°03' E 017°17'612.5
2019-Feb-18 12:00N 56°01' E 017°06'612.4
2019-Feb-18 11:30N 56°00' E 016°55'612.3
2019-Feb-18 11:00N 55°59' E 016°44'612.2
2019-Feb-18 10:30N 55°58' E 016°34'611.4
2019-Feb-18 10:00N 55°57' E 016°23'611.7
2019-Feb-18 09:30N 55°57' E 016°13'612.0
2019-Feb-18 09:00N 55°56' E 016°02'612.1
2019-Feb-18 08:30N 55°55' E 015°52'611.9
2019-Feb-18 08:00N 55°55' E 015°41'611.9
2019-Feb-18 07:30N 55°57' E 015°31'611.9
2019-Feb-18 07:00N 55°59' E 015°21'612.1
2019-Feb-18 06:30N 56°01' E 015°11'612.1
2019-Feb-18 06:00N 56°03' E 015°01'510.4
2019-Feb-18 05:30N 56°05' E 014°52'3 6.6
2019-Feb-18 05:00N 56°08' E 014°49'1 2.4
2019-Feb-18 04:26N 56°09' E 014°49'0 0.0
2019-Feb-18 03:58N 56°09' E 014°49'0 0.0
2019-Feb-18 03:29N 56°09' E 014°49'0 0.0
2019-Feb-18 02:58N 56°09' E 014°49'0 0.0
2019-Feb-18 02:29N 56°09' E 014°49'0 0.0
2019-Feb-18 01:58N 56°09' E 014°49'0 0.0
2019-Feb-18 01:29N 56°09' E 014°49'0 0.0
2019-Feb-18 00:59N 56°09' E 014°49'0 0.0
2019-Feb-18 00:25N 56°09' E 014°49'0 0.0
2019-Feb-17 23:59N 56°09' E 014°49'0 0.0
2019-Feb-17 23:29N 56°09' E 014°49'0 0.0
2019-Feb-17 22:58N 56°09' E 014°49'0 0.0
2019-Feb-17 22:29N 56°09' E 014°49'0 0.0
2019-Feb-17 21:59N 56°09' E 014°49'0 0.2
2019-Feb-17 21:30N 56°09' E 014°49'1 2.8
2019-Feb-17 21:00N 56°08' E 014°49'3 6.1
2019-Feb-17 20:30N 56°05' E 014°52'4 8.6
2019-Feb-17 20:00N 56°04' E 014°59'5 9.7
2019-Feb-17 19:30N 56°02' E 015°07'5 9.6
2019-Feb-17 19:00N 56°00' E 015°15'5 9.5
2019-Feb-17 18:30N 55°59' E 015°23'5 9.2
2019-Feb-17 18:00N 55°57' E 015°31'612.7
2019-Feb-17 17:30N 55°55' E 015°41'612.4
2019-Feb-17 17:00N 55°55' E 015°52'612.7
2019-Feb-17 16:30N 55°56' E 016°04'612.7
2019-Feb-17 16:00N 55°57' E 016°15'612.5
2019-Feb-17 15:30N 55°57' E 016°26'612.3
2019-Feb-17 15:00N 55°58' E 016°37'612.3
2019-Feb-17 14:30N 55°59' E 016°48'612.3
2019-Feb-17 14:00N 56°00' E 016°59'612.4
2019-Feb-17 13:30N 56°01' E 017°09'912.4
2019-Feb-17 12:46N 56°04' E 017°25'412.3
2019-Feb-17 12:29N 56°06' E 017°31'23 1.4
2019-Feb-16 20:23N 56°15' E 018°09'0 0.2
2019-Feb-16 19:49N 56°15' E 018°09'0 0.2
2019-Feb-16 19:30N 56°15' E 018°09'0 0.1
2019-Feb-16 18:26N 56°15' E 018°09'0 0.0
2019-Feb-16 18:00N 56°15' E 018°09'0 0.0
2019-Feb-16 17:24N 56°15' E 018°09'0 0.0
2019-Feb-16 16:58N 56°15' E 018°09'0 0.0
2019-Feb-16 16:21N 56°15' E 018°09'0 0.4
2019-Feb-16 15:56N 56°15' E 018°08'0 0.1
2019-Feb-16 15:29N 56°15' E 018°08'0 0.0
2019-Feb-16 15:00N 56°15' E 018°08'0 0.0
2019-Feb-16 14:12N 56°15' E 018°08'0 0.0
2019-Feb-16 14:00N 56°15' E 018°08'0 0.0
2019-Feb-16 13:30N 56°15' E 018°08'0 0.0
2019-Feb-16 13:00N 56°15' E 018°08'0 0.5
2019-Feb-16 12:17N 56°14' E 018°08'0 0.2
2019-Feb-16 12:00N 56°14' E 018°08'0 0.0
2019-Feb-16 11:21N 56°14' E 018°08'0 0.0
2019-Feb-16 11:00N 56°14' E 018°08'0 0.0
2019-Feb-16 10:30N 56°14' E 018°08'0 0.0
2019-Feb-16 10:00N 56°14' E 018°08'0 0.0
2019-Feb-16 09:30N 56°14' E 018°08'0 0.0
2019-Feb-16 09:00N 56°14' E 018°08'0 0.0
2019-Feb-16 08:19N 56°14' E 018°08'0 1.2
2019-Feb-16 08:00N 56°15' E 018°08'0 0.1
2019-Feb-16 07:30N 56°15' E 018°08'0 0.1
2019-Feb-16 06:52N 56°15' E 018°08'0 0.1
2019-Feb-16 06:30N 56°15' E 018°08'0 0.1
2019-Feb-16 06:00N 56°15' E 018°07'0 0.1
2019-Feb-16 05:30N 56°15' E 018°07'0 0.1
2019-Feb-16 05:00N 56°15' E 018°07'0 0.1
2019-Feb-16 04:30N 56°15' E 018°07'0 0.1
2019-Feb-16 04:00N 56°15' E 018°07'0 0.6
2019-Feb-16 03:30N 56°14' E 018°07'0 0.1
2019-Feb-16 03:00N 56°14' E 018°07'0 0.0
2019-Feb-16 02:30N 56°14' E 018°07'0 0.0
2019-Feb-16 02:01N 56°14' E 018°07'1 2.0
2019-Feb-16 01:30N 56°15' E 018°06'0 0.0
2019-Feb-16 01:00N 56°15' E 018°06'0 0.2
2019-Feb-16 00:30N 56°14' E 018°06'0 0.0
2019-Feb-16 00:00N 56°14' E 018°06'0 0.0
2019-Feb-15 23:30N 56°14' E 018°06'0 0.8
2019-Feb-15 23:00N 56°14' E 018°05'4 8.2
2019-Feb-15 22:30N 56°12' E 017°59'5 9.8
2019-Feb-15 22:00N 56°10' E 017°51'5 9.8
2019-Feb-15 21:30N 56°08' E 017°43'5 9.0
2019-Feb-15 21:00N 56°06' E 017°35'612.3
2019-Feb-15 20:30N 56°04' E 017°25'612.5
2019-Feb-15 20:00N 56°02' E 017°14'612.5
2019-Feb-15 19:30N 56°01' E 017°03'612.6
2019-Feb-15 19:00N 55°60' E 016°52'612.7
2019-Feb-15 18:30N 55°59' E 016°41'612.6
2019-Feb-15 18:00N 55°58' E 016°30'612.5
2019-Feb-15 17:30N 55°57' E 016°19'612.4
2019-Feb-15 17:00N 55°56' E 016°08'612.5
2019-Feb-15 16:30N 55°55' E 015°57'612.6
2019-Feb-15 16:00N 55°54' E 015°46'612.2
2019-Feb-15 15:30N 55°56' E 015°35'612.5
2019-Feb-15 15:00N 55°58' E 015°25'612.6
2019-Feb-15 14:30N 56°01' E 015°14'612.6
2019-Feb-15 14:01N 56°03' E 015°04'612.6
2019-Feb-15 13:30N 56°05' E 014°53'4 8.3
2019-Feb-15 13:01N 56°09' E 014°49'1 1.4
2019-Feb-15 12:25N 56°09' E 014°49'0 0.0
2019-Feb-15 11:58N 56°09' E 014°49'0 0.0
2019-Feb-15 11:22N 56°09' E 014°49'0 0.0
2019-Feb-15 10:55N 56°09' E 014°49'0 0.0
2019-Feb-15 10:28N 56°09' E 014°49'0 0.0
2019-Feb-15 09:58N 56°09' E 014°49'0 0.0
2019-Feb-15 09:28N 56°09' E 014°49'0 0.0
2019-Feb-15 08:58N 56°09' E 014°49'0 0.0
2019-Feb-15 08:28N 56°09' E 014°49'0 0.0
2019-Feb-15 07:58N 56°09' E 014°49'0 0.0
2019-Feb-15 07:10N 56°09' E 014°49'0 0.0
2019-Feb-15 06:55N 56°09' E 014°49'0 0.0
2019-Feb-15 06:28N 56°09' E 014°49'0 0.0
2019-Feb-15 05:49N 56°09' E 014°49'0 0.0
2019-Feb-15 05:25N 56°09' E 014°49'0 0.2
2019-Feb-15 05:00N 56°09' E 014°49'2 3.2
2019-Feb-15 04:26N 56°07' E 014°49'2 3.5
2019-Feb-15 04:00N 56°06' E 014°50'2 4.7
2019-Feb-15 03:30N 56°05' E 014°54'4 8.4
2019-Feb-15 03:00N 56°03' E 015°01'5 9.3
2019-Feb-15 02:28N 56°02' E 015°09'510.3
2019-Feb-15 02:00N 55°60' E 015°17'611.1
2019-Feb-15 01:30N 55°58' E 015°26'611.7
2019-Feb-15 01:00N 55°56' E 015°36'612.1
2019-Feb-15 00:30N 55°54' E 015°47'612.5
2019-Feb-15 00:00N 55°55' E 015°58'612.3
2019-Feb-14 23:30N 55°56' E 016°08'612.3
2019-Feb-14 23:00N 55°57' E 016°19'612.2
2019-Feb-14 22:30N 55°58' E 016°30'612.0
2019-Feb-14 22:00N 55°59' E 016°41'611.9
2019-Feb-14 21:30N 55°60' E 016°51'711.8
2019-Feb-14 20:57N 56°01' E 017°03'3112.0
2019-Feb-14 18:23N 56°10' E 017°55'5 7.3
2019-Feb-14 17:38N 56°14' E 018°03'2 0.1
2019-Feb-14 00:10N 56°12' E 018°01'0 0.0
2019-Feb-14 00:00N 56°12' E 018°01'0 0.0
2019-Feb-13 23:30N 56°12' E 018°01'0 0.0
2019-Feb-13 22:55N 56°12' E 018°01'  
Track history (hours):
 
Tides and Currents Weather Stations Pressure Air Temp Water Temp Dewpoint Dewpoint Depression Visibility Wind Speed Wind Dir Waves Ship Positions

Atlasgracht

Last reported at 2019-Feb-23 16:30 UTC. Time now 2019-Feb-23 16:43 UTC.
Position N 56°07' E 014°49'.

Length 130 m; beam 19 m; draft 9 m.

Type: Cargo ship. MMSI: 244060802.

Date/timePositionNaut miles runAvg speedWind from/ knotsBaromVisibWave heightAir tempDewpointWater temp
2019-Feb-23 16:30N 56°07' E 014°49'2 3.8
2019-Feb-23 16:00N 56°09' E 014°49'0 0.0
2019-Feb-23 15:28N 56°09' E 014°49'0 0.0
2019-Feb-23 14:58N 56°09' E 014°49'0 0.0
2019-Feb-23 14:28N 56°09' E 014°49'0 0.0
2019-Feb-23 13:58N 56°09' E 014°49'0 0.0
2019-Feb-23 13:28N 56°09' E 014°49'0 0.0
2019-Feb-23 12:58N 56°09' E 014°49'0 0.0
2019-Feb-23 12:28N 56°09' E 014°49'0 0.0
2019-Feb-23 11:58N 56°09' E 014°49'0 0.0
2019-Feb-23 11:28N 56°09' E 014°49'0 0.0
2019-Feb-23 10:58N 56°09' E 014°49'0 0.0
2019-Feb-23 10:28N 56°09' E 014°49'0 0.0
2019-Feb-23 09:58N 56°09' E 014°49'0 0.0
2019-Feb-23 09:28N 56°09' E 014°49'0 0.0
2019-Feb-23 08:58N 56°09' E 014°49'0 0.0
2019-Feb-23 08:30N 56°09' E 014°49'1 2.5
2019-Feb-23 08:00N 56°08' E 014°49'4 8.3
2019-Feb-23 07:30N 56°05' E 014°54'611.4
2019-Feb-23 07:00N 56°03' E 015°03'611.2
2019-Feb-23 06:30N 56°01' E 015°13'611.4
2019-Feb-23 06:00N 55°59' E 015°22'611.8
2019-Feb-23 05:30N 55°57' E 015°32'611.8
2019-Feb-23 05:00N 55°55' E 015°42'611.2
2019-Feb-23 04:30N 55°55' E 015°52'611.7
2019-Feb-23 04:00N 55°56' E 016°02'611.8
2019-Feb-23 03:30N 55°57' E 016°13'611.5
2019-Feb-23 03:00N 55°57' E 016°23'611.4
2019-Feb-23 02:30N 55°58' E 016°33'611.1
2019-Feb-23 02:00N 55°59' E 016°43'611.0
2019-Feb-23 01:30N 55°60' E 016°52'611.2
2019-Feb-23 01:00N 56°01' E 017°02'1211.3
2019-Feb-22 23:55N 56°04' E 017°23'1211.5
2019-Feb-22 22:55N 56°08' E 017°43'811.7
2019-Feb-22 22:13N 56°11' E 017°57'412.2
2019-Feb-22 21:54N 56°12' E 018°03'711.3
2019-Feb-22 21:17N 56°15' E 018°15'10 2.6
2019-Feb-22 17:25N 56°19' E 018°31'50 3.5
2019-Feb-22 03:17N 56°01' E 017°07'311.2
2019-Feb-22 03:00N 56°01' E 017°01'611.1
2019-Feb-22 02:30N 55°60' E 016°52'611.1
2019-Feb-22 02:00N 55°59' E 016°42'510.9
2019-Feb-22 01:30N 55°58' E 016°32'510.8
2019-Feb-22 01:00N 55°57' E 016°23'510.7
2019-Feb-22 00:30N 55°56' E 016°13'510.6
2019-Feb-22 00:00N 55°56' E 016°04'510.6
2019-Feb-21 23:30N 55°55' E 015°55'510.4
2019-Feb-21 23:00N 55°54' E 015°45'510.0
2019-Feb-21 22:30N 55°55' E 015°37'510.3
2019-Feb-21 22:00N 55°57' E 015°28'510.3
2019-Feb-21 21:30N 55°59' E 015°20'510.4
2019-Feb-21 21:00N 56°01' E 015°11'510.5
2019-Feb-21 20:30N 56°03' E 015°02'510.8
2019-Feb-21 20:00N 56°05' E 014°53'4 7.8
2019-Feb-21 19:30N 56°08' E 014°49'1 1.9
2019-Feb-21 19:00N 56°09' E 014°49'0 0.0
2019-Feb-21 18:30N 56°09' E 014°49'0 0.0
2019-Feb-21 18:00N 56°09' E 014°49'0 0.0
2019-Feb-21 17:30N 56°09' E 014°49'0 0.0
2019-Feb-21 17:00N 56°09' E 014°49'0 0.0
2019-Feb-21 16:30N 56°09' E 014°49'0 0.0
2019-Feb-21 16:00N 56°09' E 014°49'0 0.0
2019-Feb-21 15:30N 56°09' E 014°49'0 0.0
2019-Feb-21 15:00N 56°09' E 014°49'0 0.0
2019-Feb-21 14:30N 56°09' E 014°49'0 0.0
2019-Feb-21 14:00N 56°09' E 014°49'0 0.0
2019-Feb-21 13:30N 56°09' E 014°49'0 0.0
2019-Feb-21 13:00N 56°09' E 014°49'0 0.0
2019-Feb-21 12:30N 56°09' E 014°49'0 0.0
2019-Feb-21 12:00N 56°09' E 014°49'0 0.7
2019-Feb-21 11:30N 56°09' E 014°49'2 4.2
2019-Feb-21 11:00N 56°07' E 014°49'5 9.4
2019-Feb-21 10:30N 56°04' E 014°57'510.0
2019-Feb-21 10:00N 56°03' E 015°05'510.0
2019-Feb-21 09:30N 56°01' E 015°13'510.1
2019-Feb-21 09:00N 55°59' E 015°22'510.1
2019-Feb-21 08:30N 55°57' E 015°30'510.2
2019-Feb-21 08:00N 55°55' E 015°39'510.5
2019-Feb-21 07:30N 55°55' E 015°48'611.1
2019-Feb-21 07:00N 55°55' E 015°58'611.3
2019-Feb-21 06:31N 55°56' E 016°08'612.1
2019-Feb-21 06:00N 55°57' E 016°18'713.3
2019-Feb-21 05:30N 55°58' E 016°30'713.1
2019-Feb-21 05:00N 55°59' E 016°42'612.9
2019-Feb-21 04:30N 55°60' E 016°53'4312.7
2019-Feb-21 01:06N 56°13' E 018°07'557518.4
2019-Feb-21 00:01N 51°58' E 004°02'46613.2
2019-Feb-19 12:50N 55°59' E 015°21'410.7
2019-Feb-19 12:30N 55°58' E 015°27'510.6
2019-Feb-19 12:00N 55°56' E 015°36'510.5
2019-Feb-19 11:30N 55°54' E 015°45'510.8
2019-Feb-19 11:00N 55°55' E 015°54'511.0
2019-Feb-19 10:30N 55°56' E 016°04'611.5
2019-Feb-19 10:00N 55°57' E 016°14'612.0
2019-Feb-19 09:30N 55°57' E 016°25'612.0
2019-Feb-19 09:00N 55°58' E 016°35'612.1
2019-Feb-19 08:30N 55°59' E 016°46'612.2
2019-Feb-19 07:59N 56°00' E 016°57'612.0
2019-Feb-19 07:30N 56°01' E 017°07'1712.0
2019-Feb-19 06:05N 56°07' E 017°36'112.1
2019-Feb-19 06:00N 56°07' E 017°38'612.3
2019-Feb-19 05:30N 56°09' E 017°48'19 8.5
2019-Feb-19 03:19N 56°17' E 018°19'0 0.1
2019-Feb-19 02:59N 56°17' E 018°19'0 0.1
2019-Feb-19 02:28N 56°17' E 018°19'0 0.0
2019-Feb-19 02:00N 56°17' E 018°19'0 0.1
2019-Feb-19 01:29N 56°17' E 018°18'0 0.1
2019-Feb-19 01:00N 56°17' E 018°18'0 0.1
2019-Feb-19 00:24N 56°17' E 018°18'0 0.1
2019-Feb-19 00:00N 56°17' E 018°18'0 0.1
2019-Feb-18 23:26N 56°17' E 018°18'0 0.0
2019-Feb-18 22:56N 56°17' E 018°18'0 0.1
2019-Feb-18 22:19N 56°17' E 018°18'0 0.1
2019-Feb-18 21:51N 56°17' E 018°18'0 0.1
2019-Feb-18 21:28N 56°17' E 018°18'0 0.1
2019-Feb-18 20:59N 56°17' E 018°18'0 0.1
2019-Feb-18 20:30N 56°17' E 018°18'0 0.1
2019-Feb-18 19:57N 56°17' E 018°18'0 0.1
2019-Feb-18 19:12N 56°17' E 018°17'0 0.1
2019-Feb-18 19:00N 56°17' E 018°17'0 0.1
2019-Feb-18 18:28N 56°17' E 018°17'0 0.1
2019-Feb-18 18:00N 56°17' E 018°17'0 0.1
2019-Feb-18 17:22N 56°17' E 018°17'0 0.1
2019-Feb-18 16:56N 56°17' E 018°17'0 0.4
2019-Feb-18 16:04N 56°17' E 018°16'0 0.0
2019-Feb-18 15:52N 56°17' E 018°16'1 3.2
2019-Feb-18 15:30N 56°16' E 018°14'510.2
2019-Feb-18 15:00N 56°14' E 018°07'510.5
2019-Feb-18 14:30N 56°11' E 017°58'711.8
2019-Feb-18 13:53N 56°09' E 017°46'612.5
2019-Feb-18 13:23N 56°06' E 017°35'512.6
2019-Feb-18 13:00N 56°05' E 017°27'612.6
2019-Feb-18 12:30N 56°03' E 017°17'612.5
2019-Feb-18 12:00N 56°01' E 017°06'612.4
2019-Feb-18 11:30N 56°00' E 016°55'612.3
2019-Feb-18 11:00N 55°59' E 016°44'612.2
2019-Feb-18 10:30N 55°58' E 016°34'611.4
2019-Feb-18 10:00N 55°57' E 016°23'611.7
2019-Feb-18 09:30N 55°57' E 016°13'612.0
2019-Feb-18 09:00N 55°56' E 016°02'612.1
2019-Feb-18 08:30N 55°55' E 015°52'611.9
2019-Feb-18 08:00N 55°55' E 015°41'611.9
2019-Feb-18 07:30N 55°57' E 015°31'611.9
2019-Feb-18 07:00N 55°59' E 015°21'612.1
2019-Feb-18 06:30N 56°01' E 015°11'612.1
2019-Feb-18 06:00N 56°03' E 015°01'510.4
2019-Feb-18 05:30N 56°05' E 014°52'3 6.6
2019-Feb-18 05:00N 56°08' E 014°49'1 2.4
2019-Feb-18 04:26N 56°09' E 014°49'0 0.0
2019-Feb-18 03:58N 56°09' E 014°49'0 0.0
2019-Feb-18 03:29N 56°09' E 014°49'0 0.0
2019-Feb-18 02:58N 56°09' E 014°49'0 0.0
2019-Feb-18 02:29N 56°09' E 014°49'0 0.0
2019-Feb-18 01:58N 56°09' E 014°49'0 0.0
2019-Feb-18 01:29N 56°09' E 014°49'0 0.0
2019-Feb-18 00:59N 56°09' E 014°49'0 0.0
2019-Feb-18 00:25N 56°09' E 014°49'0 0.0
2019-Feb-17 23:59N 56°09' E 014°49'0 0.0
2019-Feb-17 23:29N 56°09' E 014°49'0 0.0
2019-Feb-17 22:58N 56°09' E 014°49'0 0.0
2019-Feb-17 22:29N 56°09' E 014°49'0 0.0
2019-Feb-17 21:59N 56°09' E 014°49'0 0.2
2019-Feb-17 21:30N 56°09' E 014°49'1 2.8
2019-Feb-17 21:00N 56°08' E 014°49'3 6.1
2019-Feb-17 20:30N 56°05' E 014°52'4 8.6
2019-Feb-17 20:00N 56°04' E 014°59'5 9.7
2019-Feb-17 19:30N 56°02' E 015°07'5 9.6
2019-Feb-17 19:00N 56°00' E 015°15'5 9.5
2019-Feb-17 18:30N 55°59' E 015°23'5 9.2
2019-Feb-17 18:00N 55°57' E 015°31'612.7
2019-Feb-17 17:30N 55°55' E 015°41'612.4
2019-Feb-17 17:00N 55°55' E 015°52'612.7
2019-Feb-17 16:30N 55°56' E 016°04'612.7
2019-Feb-17 16:00N 55°57' E 016°15'612.5
2019-Feb-17 15:30N 55°57' E 016°26'612.3
2019-Feb-17 15:00N 55°58' E 016°37'612.3
2019-Feb-17 14:30N 55°59' E 016°48'612.3
2019-Feb-17 14:00N 56°00' E 016°59'612.4
2019-Feb-17 13:30N 56°01' E 017°09'912.4
2019-Feb-17 12:46N 56°04' E 017°25'412.3
2019-Feb-17 12:29N 56°06' E 017°31'23 1.4
2019-Feb-16 20:23N 56°15' E 018°09'0 0.2
2019-Feb-16 19:49N 56°15' E 018°09'0 0.2
2019-Feb-16 19:30N 56°15' E 018°09'0 0.1
2019-Feb-16 18:26N 56°15' E 018°09'0 0.0
2019-Feb-16 18:00N 56°15' E 018°09'0 0.0
2019-Feb-16 17:24N 56°15' E 018°09'0 0.0
2019-Feb-16 16:58N 56°15' E 018°09'0 0.0
2019-Feb-16 16:21N 56°15' E 018°09'0 0.4
2019-Feb-16 15:56N 56°15' E 018°08'0 0.1
2019-Feb-16 15:29N 56°15' E 018°08'0 0.0
2019-Feb-16 15:00N 56°15' E 018°08'0 0.0
2019-Feb-16 14:12N 56°15' E 018°08'0 0.0
2019-Feb-16 14:00N 56°15' E 018°08'0 0.0
2019-Feb-16 13:30N 56°15' E 018°08'0 0.0
2019-Feb-16 13:00N 56°15' E 018°08'0 0.5
2019-Feb-16 12:17N 56°14' E 018°08'0 0.2
2019-Feb-16 12:00N 56°14' E 018°08'0 0.0
2019-Feb-16 11:21N 56°14' E 018°08'0 0.0
2019-Feb-16 11:00N 56°14' E 018°08'0 0.0
2019-Feb-16 10:30N 56°14' E 018°08'0 0.0
2019-Feb-16 10:00N 56°14' E 018°08'0 0.0
2019-Feb-16 09:30N 56°14' E 018°08'0 0.0
2019-Feb-16 09:00N 56°14' E 018°08'0 0.0
2019-Feb-16 08:19N 56°14' E 018°08'0 1.2
2019-Feb-16 08:00N 56°15' E 018°08'0 0.1
2019-Feb-16 07:30N 56°15' E 018°08'0 0.1
2019-Feb-16 06:52N 56°15' E 018°08'0 0.1
2019-Feb-16 06:30N 56°15' E 018°08'0 0.1
2019-Feb-16 06:00N 56°15' E 018°07'0 0.1
2019-Feb-16 05:30N 56°15' E 018°07'0 0.1
2019-Feb-16 05:00N 56°15' E 018°07'0 0.1
2019-Feb-16 04:30N 56°15' E 018°07'0 0.1
2019-Feb-16 04:00N 56°15' E 018°07'0 0.6
2019-Feb-16 03:30N 56°14' E 018°07'0 0.1
2019-Feb-16 03:00N 56°14' E 018°07'0 0.0
2019-Feb-16 02:30N 56°14' E 018°07'0 0.0
2019-Feb-16 02:01N 56°14' E 018°07'1 2.0
2019-Feb-16 01:30N 56°15' E 018°06'0 0.0
2019-Feb-16 01:00N 56°15' E 018°06'0 0.2
2019-Feb-16 00:30N 56°14' E 018°06'0 0.0
2019-Feb-16 00:00N 56°14' E 018°06'0 0.0
2019-Feb-15 23:30N 56°14' E 018°06'0 0.8
2019-Feb-15 23:00N 56°14' E 018°05'4 8.2
2019-Feb-15 22:30N 56°12' E 017°59'5 9.8
2019-Feb-15 22:00N 56°10' E 017°51'5 9.8
2019-Feb-15 21:30N 56°08' E 017°43'5 9.0
2019-Feb-15 21:00N 56°06' E 017°35'612.3
2019-Feb-15 20:30N 56°04' E 017°25'612.5
2019-Feb-15 20:00N 56°02' E 017°14'612.5
2019-Feb-15 19:30N 56°01' E 017°03'612.6
2019-Feb-15 19:00N 55°60' E 016°52'612.7
2019-Feb-15 18:30N 55°59' E 016°41'612.6
2019-Feb-15 18:00N 55°58' E 016°30'612.5
2019-Feb-15 17:30N 55°57' E 016°19'612.4
2019-Feb-15 17:00N 55°56' E 016°08'612.5
2019-Feb-15 16:30N 55°55' E 015°57'612.6
2019-Feb-15 16:00N 55°54' E 015°46'612.2
2019-Feb-15 15:30N 55°56' E 015°35'612.5
2019-Feb-15 15:00N 55°58' E 015°25'612.6
2019-Feb-15 14:30N 56°01' E 015°14'612.6
2019-Feb-15 14:01N 56°03' E 015°04'612.6
2019-Feb-15 13:30N 56°05' E 014°53'4 8.3
2019-Feb-15 13:01N 56°09' E 014°49'1 1.4
2019-Feb-15 12:25N 56°09' E 014°49'0 0.0
2019-Feb-15 11:58N 56°09' E 014°49'0 0.0
2019-Feb-15 11:22N 56°09' E 014°49'0 0.0
2019-Feb-15 10:55N 56°09' E 014°49'0 0.0
2019-Feb-15 10:28N 56°09' E 014°49'0 0.0
2019-Feb-15 09:58N 56°09' E 014°49'0 0.0
2019-Feb-15 09:28N 56°09' E 014°49'0 0.0
2019-Feb-15 08:58N 56°09' E 014°49'0 0.0
2019-Feb-15 08:28N 56°09' E 014°49'0 0.0
2019-Feb-15 07:58N 56°09' E 014°49'0 0.0
2019-Feb-15 07:10N 56°09' E 014°49'0 0.0
2019-Feb-15 06:55N 56°09' E 014°49'0 0.0
2019-Feb-15 06:28N 56°09' E 014°49'0 0.0
2019-Feb-15 05:49N 56°09' E 014°49'0 0.0
2019-Feb-15 05:25N 56°09' E 014°49'0 0.2
2019-Feb-15 05:00N 56°09' E 014°49'2 3.2
2019-Feb-15 04:26N 56°07' E 014°49'2 3.5
2019-Feb-15 04:00N 56°06' E 014°50'2 4.7
2019-Feb-15 03:30N 56°05' E 014°54'4 8.4
2019-Feb-15 03:00N 56°03' E 015°01'5 9.3
2019-Feb-15 02:28N 56°02' E 015°09'510.3
2019-Feb-15 02:00N 55°60' E 015°17'611.1
2019-Feb-15 01:30N 55°58' E 015°26'611.7
2019-Feb-15 01:00N 55°56' E 015°36'612.1
2019-Feb-15 00:30N 55°54' E 015°47'612.5
2019-Feb-15 00:00N 55°55' E 015°58'612.3
2019-Feb-14 23:30N 55°56' E 016°08'612.3
2019-Feb-14 23:00N 55°57' E 016°19'612.2
2019-Feb-14 22:30N 55°58' E 016°30'612.0
2019-Feb-14 22:00N 55°59' E 016°41'611.9
2019-Feb-14 21:30N 55°60' E 016°51'711.8
2019-Feb-14 20:57N 56°01' E 017°03'3112.0
2019-Feb-14 18:23N 56°10' E 017°55'5 7.3
2019-Feb-14 17:38N 56°14' E 018°03'2 0.1
2019-Feb-14 00:10N 56°12' E 018°01'0 0.0
2019-Feb-14 00:00N 56°12' E 018°01'0 0.0
2019-Feb-13 23:30N 56°12' E 018°01'0 0.0
2019-Feb-13 22:55N 56°12' E 018°01'  

Dump ship's entire track history